sensor_id;sensor_type;location;lat;lon;timestamp;P1;durP1;ratioP1;P2;durP2;ratioP2
56503;SDS011;48812;51.606;-0.114;2023-04-12T00:01:34;2.00;;;1.17;;
56503;SDS011;48812;51.606;-0.114;2023-04-12T00:04:07;1.60;;;0.60;;
56503;SDS011;48812;51.606;-0.114;2023-04-12T00:06:43;2.30;;;0.80;;
56503;SDS011;48812;51.606;-0.114;2023-04-12T00:09:19;1.77;;;0.90;;
56503;SDS011;48812;51.606;-0.114;2023-04-12T00:11:52;2.60;;;0.80;;
56503;SDS011;48812;51.606;-0.114;2023-04-12T00:14:27;1.63;;;0.70;;
56503;SDS011;48812;51.606;-0.114;2023-04-12T00:17:00;2.58;;;0.88;;
56503;SDS011;48812;51.606;-0.114;2023-04-12T00:19:32;2.55;;;0.85;;
56503;SDS011;48812;51.606;-0.114;2023-04-12T00:22:09;2.05;;;0.77;;
56503;SDS011;48812;51.606;-0.114;2023-04-12T00:24:42;2.80;;;0.80;;
56503;SDS011;48812;51.606;-0.114;2023-04-12T00:27:15;2.67;;;0.83;;
56503;SDS011;48812;51.606;-0.114;2023-04-12T00:29:49;1.60;;;1.10;;
56503;SDS011;48812;51.606;-0.114;2023-04-12T00:32:25;2.25;;;0.90;;
56503;SDS011;48812;51.606;-0.114;2023-04-12T00:34:59;3.03;;;0.88;;
56503;SDS011;48812;51.606;-0.114;2023-04-12T00:37:32;1.48;;;0.70;;
56503;SDS011;48812;51.606;-0.114;2023-04-12T00:42:42;3.97;;;0.90;;
56503;SDS011;48812;51.606;-0.114;2023-04-12T00:45:15;1.83;;;0.98;;
56503;SDS011;48812;51.606;-0.114;2023-04-12T00:47:47;2.60;;;1.00;;
56503;SDS011;48812;51.606;-0.114;2023-04-12T00:50:22;2.35;;;0.85;;
56503;SDS011;48812;51.606;-0.114;2023-04-12T00:52:55;1.92;;;0.90;;
56503;SDS011;48812;51.606;-0.114;2023-04-12T00:55:29;4.05;;;0.80;;
56503;SDS011;48812;51.606;-0.114;2023-04-12T00:58:02;2.50;;;0.73;;
56503;SDS011;48812;51.606;-0.114;2023-04-12T01:00:36;3.20;;;1.08;;
56503;SDS011;48812;51.606;-0.114;2023-04-12T01:03:15;3.55;;;1.00;;
56503;SDS011;48812;51.606;-0.114;2023-04-12T01:05:59;3.83;;;1.00;;
56503;SDS011;48812;51.606;-0.114;2023-04-12T01:11:24;3.38;;;1.20;;
56503;SDS011;48812;51.606;-0.114;2023-04-12T01:16:39;2.13;;;1.05;;
56503;SDS011;48812;51.606;-0.114;2023-04-12T01:19:32;3.88;;;1.15;;
56503;SDS011;48812;51.606;-0.114;2023-04-12T01:28:09;1.88;;;0.90;;
56503;SDS011;48812;51.606;-0.114;2023-04-12T01:30:49;4.50;;;1.00;;
56503;SDS011;48812;51.606;-0.114;2023-04-12T01:33:29;3.13;;;1.20;;
56503;SDS011;48812;51.606;-0.114;2023-04-12T01:36:09;2.30;;;1.20;;
56503;SDS011;48812;51.606;-0.114;2023-04-12T01:38:51;2.88;;;1.23;;
56503;SDS011;48812;51.606;-0.114;2023-04-12T01:41:25;6.00;;;1.15;;
56503;SDS011;48812;51.606;-0.114;2023-04-12T01:43:58;3.33;;;1.08;;
56503;SDS011;48812;51.606;-0.114;2023-04-12T01:46:33;3.75;;;1.20;;
56503;SDS011;48812;51.606;-0.114;2023-04-12T01:49:08;3.55;;;1.15;;
56503;SDS011;48812;51.606;-0.114;2023-04-12T01:54:56;2.15;;;0.80;;
56503;SDS011;48812;51.606;-0.114;2023-04-12T01:57:35;2.72;;;1.05;;
56503;SDS011;48812;51.606;-0.114;2023-04-12T02:00:10;4.03;;;1.00;;
56503;SDS011;48812;51.606;-0.114;2023-04-12T02:02:45;3.58;;;1.10;;
56503;SDS011;48812;51.606;-0.114;2023-04-12T02:05:22;5.07;;;1.08;;
56503;SDS011;48812;51.606;-0.114;2023-04-12T02:07:56;4.45;;;1.30;;
56503;SDS011;48812;51.606;-0.114;2023-04-12T02:10:29;3.40;;;1.30;;
56503;SDS011;48812;51.606;-0.114;2023-04-12T02:13:03;2.40;;;1.00;;
56503;SDS011;48812;51.606;-0.114;2023-04-12T02:15:35;4.20;;;1.30;;
56503;SDS011;48812;51.606;-0.114;2023-04-12T02:20:43;3.03;;;1.10;;
56503;SDS011;48812;51.606;-0.114;2023-04-12T02:23:16;3.45;;;1.02;;
56503;SDS011;48812;51.606;-0.114;2023-04-12T02:25:50;3.88;;;1.30;;
56503;SDS011;48812;51.606;-0.114;2023-04-12T02:28:23;4.45;;;1.20;;
56503;SDS011;48812;51.606;-0.114;2023-04-12T02:30:58;2.28;;;1.08;;
56503;SDS011;48812;51.606;-0.114;2023-04-12T02:33:32;3.63;;;1.02;;
56503;SDS011;48812;51.606;-0.114;2023-04-12T02:36:09;3.67;;;1.30;;
56503;SDS011;48812;51.606;-0.114;2023-04-12T02:38:43;2.58;;;1.10;;
56503;SDS011;48812;51.606;-0.114;2023-04-12T02:41:20;4.57;;;1.15;;
56503;SDS011;48812;51.606;-0.114;2023-04-12T02:43:53;4.45;;;1.42;;
56503;SDS011;48812;51.606;-0.114;2023-04-12T02:46:28;4.15;;;1.30;;
56503;SDS011;48812;51.606;-0.114;2023-04-12T02:49:02;3.90;;;1.48;;
56503;SDS011;48812;51.606;-0.114;2023-04-12T02:51:40;4.10;;;1.20;;
56503;SDS011;48812;51.606;-0.114;2023-04-12T02:54:13;3.88;;;1.35;;
56503;SDS011;48812;51.606;-0.114;2023-04-12T02:56:58;3.33;;;1.30;;
56503;SDS011;48812;51.606;-0.114;2023-04-12T02:59:58;3.75;;;1.25;;
56503;SDS011;48812;51.606;-0.114;2023-04-12T03:02:46;5.35;;;1.40;;
56503;SDS011;48812;51.606;-0.114;2023-04-12T03:05:29;3.17;;;1.20;;
56503;SDS011;48812;51.606;-0.114;2023-04-12T03:08:03;3.58;;;1.33;;
56503;SDS011;48812;51.606;-0.114;2023-04-12T03:10:42;3.90;;;1.35;;
56503;SDS011;48812;51.606;-0.114;2023-04-12T03:13:15;4.20;;;1.30;;
56503;SDS011;48812;51.606;-0.114;2023-04-12T03:15:54;3.95;;;1.30;;
56503;SDS011;48812;51.606;-0.114;2023-04-12T03:18:35;4.57;;;1.27;;
56503;SDS011;48812;51.606;-0.114;2023-04-12T03:21:08;4.25;;;1.30;;
56503;SDS011;48812;51.606;-0.114;2023-04-12T03:23:41;4.28;;;1.58;;
56503;SDS011;48812;51.606;-0.114;2023-04-12T03:26:20;3.33;;;1.23;;
56503;SDS011;48812;51.606;-0.114;2023-04-12T03:29:02;4.25;;;1.20;;
56503;SDS011;48812;51.606;-0.114;2023-04-12T03:31:43;2.72;;;1.30;;
56503;SDS011;48812;51.606;-0.114;2023-04-12T03:34:17;4.22;;;1.23;;
56503;SDS011;48812;51.606;-0.114;2023-04-12T03:36:54;4.30;;;1.20;;
56503;SDS011;48812;51.606;-0.114;2023-04-12T03:39:45;4.72;;;1.50;;
56503;SDS011;48812;51.606;-0.114;2023-04-12T03:42:24;5.93;;;1.42;;
56503;SDS011;48812;51.606;-0.114;2023-04-12T03:45:13;4.20;;;1.30;;
56503;SDS011;48812;51.606;-0.114;2023-04-12T03:47:50;5.28;;;1.35;;
56503;SDS011;48812;51.606;-0.114;2023-04-12T03:50:25;4.13;;;1.40;;
56503;SDS011;48812;51.606;-0.114;2023-04-12T03:53:01;3.42;;;1.35;;
56503;SDS011;48812;51.606;-0.114;2023-04-12T03:55:41;4.63;;;1.15;;
56503;SDS011;48812;51.606;-0.114;2023-04-12T03:58:15;4.38;;;1.50;;
56503;SDS011;48812;51.606;-0.114;2023-04-12T04:00:50;5.93;;;1.58;;
56503;SDS011;48812;51.606;-0.114;2023-04-12T04:03:26;5.97;;;1.48;;
56503;SDS011;48812;51.606;-0.114;2023-04-12T04:08:42;6.43;;;1.30;;
56503;SDS011;48812;51.606;-0.114;2023-04-12T04:11:17;6.00;;;1.70;;
56503;SDS011;48812;51.606;-0.114;2023-04-12T04:13:56;4.30;;;1.60;;
56503;SDS011;48812;51.606;-0.114;2023-04-12T04:16:29;5.13;;;1.38;;
56503;SDS011;48812;51.606;-0.114;2023-04-12T04:19:03;3.75;;;1.45;;
56503;SDS011;48812;51.606;-0.114;2023-04-12T04:21:38;4.20;;;1.40;;
56503;SDS011;48812;51.606;-0.114;2023-04-12T04:24:11;4.68;;;1.45;;
56503;SDS011;48812;51.606;-0.114;2023-04-12T04:26:50;4.28;;;1.52;;
56503;SDS011;48812;51.606;-0.114;2023-04-12T04:29:29;6.72;;;1.70;;
56503;SDS011;48812;51.606;-0.114;2023-04-12T04:32:05;4.43;;;1.60;;
56503;SDS011;48812;51.606;-0.114;2023-04-12T04:34:39;5.68;;;1.52;;
56503;SDS011;48812;51.606;-0.114;2023-04-12T04:37:18;5.97;;;1.63;;
56503;SDS011;48812;51.606;-0.114;2023-04-12T04:39:53;4.28;;;1.55;;
56503;SDS011;48812;51.606;-0.114;2023-04-12T04:42:30;4.35;;;1.55;;
56503;SDS011;48812;51.606;-0.114;2023-04-12T04:45:06;6.03;;;1.58;;
56503;SDS011;48812;51.606;-0.114;2023-04-12T04:47:47;5.13;;;1.30;;
56503;SDS011;48812;51.606;-0.114;2023-04-12T04:50:20;6.23;;;1.40;;
56503;SDS011;48812;51.606;-0.114;2023-04-12T04:52:57;3.42;;;1.10;;
56503;SDS011;48812;51.606;-0.114;2023-04-12T04:55:31;5.13;;;1.48;;
56503;SDS011;48812;51.606;-0.114;2023-04-12T04:58:04;5.63;;;1.42;;
56503;SDS011;48812;51.606;-0.114;2023-04-12T05:00:37;4.80;;;1.17;;
56503;SDS011;48812;51.606;-0.114;2023-04-12T05:03:10;4.20;;;1.45;;
56503;SDS011;48812;51.606;-0.114;2023-04-12T05:05:43;7.95;;;1.63;;
56503;SDS011;48812;51.606;-0.114;2023-04-12T05:08:19;4.65;;;1.48;;
56503;SDS011;48812;51.606;-0.114;2023-04-12T05:10:53;4.60;;;1.48;;
56503;SDS011;48812;51.606;-0.114;2023-04-12T05:13:31;3.40;;;1.38;;
56503;SDS011;48812;51.606;-0.114;2023-04-12T05:16:04;5.43;;;1.63;;
56503;SDS011;48812;51.606;-0.114;2023-04-12T05:18:40;4.45;;;1.55;;
56503;SDS011;48812;51.606;-0.114;2023-04-12T05:21:12;6.13;;;1.40;;
56503;SDS011;48812;51.606;-0.114;2023-04-12T05:23:47;2.38;;;0.90;;
56503;SDS011;48812;51.606;-0.114;2023-04-12T05:26:19;3.33;;;1.30;;
56503;SDS011;48812;51.606;-0.114;2023-04-12T05:28:55;4.20;;;1.40;;
56503;SDS011;48812;51.606;-0.114;2023-04-12T05:31:31;6.18;;;1.55;;
56503;SDS011;48812;51.606;-0.114;2023-04-12T05:34:10;4.68;;;1.38;;
56503;SDS011;48812;51.606;-0.114;2023-04-12T05:36:50;5.05;;;1.48;;
56503;SDS011;48812;51.606;-0.114;2023-04-12T05:41:58;5.82;;;1.23;;
56503;SDS011;48812;51.606;-0.114;2023-04-12T05:44:33;5.15;;;1.55;;
56503;SDS011;48812;51.606;-0.114;2023-04-12T05:47:10;5.68;;;1.60;;
56503;SDS011;48812;51.606;-0.114;2023-04-12T05:49:44;4.80;;;1.40;;
56503;SDS011;48812;51.606;-0.114;2023-04-12T05:52:17;8.23;;;1.40;;
56503;SDS011;48812;51.606;-0.114;2023-04-12T05:54:51;5.43;;;1.63;;
56503;SDS011;48812;51.606;-0.114;2023-04-12T05:57:25;4.80;;;1.40;;
56503;SDS011;48812;51.606;-0.114;2023-04-12T05:59:58;6.57;;;1.50;;
56503;SDS011;48812;51.606;-0.114;2023-04-12T06:02:30;4.68;;;1.60;;
56503;SDS011;48812;51.606;-0.114;2023-04-12T06:05:03;4.50;;;1.60;;
56503;SDS011;48812;51.606;-0.114;2023-04-12T06:07:40;3.45;;;1.40;;
56503;SDS011;48812;51.606;-0.114;2023-04-12T06:10:18;5.80;;;1.88;;
56503;SDS011;48812;51.606;-0.114;2023-04-12T06:12:54;3.78;;;1.63;;
56503;SDS011;48812;51.606;-0.114;2023-04-12T06:15:26;5.22;;;1.52;;
56503;SDS011;48812;51.606;-0.114;2023-04-12T06:17:59;5.13;;;1.40;;
56503;SDS011;48812;51.606;-0.114;2023-04-12T06:20:31;4.00;;;1.42;;
56503;SDS011;48812;51.606;-0.114;2023-04-12T06:23:04;3.75;;;1.75;;
56503;SDS011;48812;51.606;-0.114;2023-04-12T06:25:38;3.78;;;1.27;;
56503;SDS011;48812;51.606;-0.114;2023-04-12T06:28:12;4.75;;;1.30;;
56503;SDS011;48812;51.606;-0.114;2023-04-12T06:30:48;5.25;;;2.00;;
56503;SDS011;48812;51.606;-0.114;2023-04-12T06:33:21;4.97;;;1.50;;
56503;SDS011;48812;51.606;-0.114;2023-04-12T06:35:54;3.78;;;1.35;;
56503;SDS011;48812;51.606;-0.114;2023-04-12T06:38:30;4.72;;;1.58;;
56503;SDS011;48812;51.606;-0.114;2023-04-12T06:41:02;5.03;;;1.50;;
56503;SDS011;48812;51.606;-0.114;2023-04-12T06:43:35;3.88;;;1.45;;
56503;SDS011;48812;51.606;-0.114;2023-04-12T06:46:07;6.03;;;1.73;;
56503;SDS011;48812;51.606;-0.114;2023-04-12T06:48:40;4.88;;;1.30;;
56503;SDS011;48812;51.606;-0.114;2023-04-12T06:51:12;4.47;;;1.53;;
56503;SDS011;48812;51.606;-0.114;2023-04-12T06:53:48;6.40;;;1.60;;
56503;SDS011;48812;51.606;-0.114;2023-04-12T06:56:22;4.88;;;1.50;;
56503;SDS011;48812;51.606;-0.114;2023-04-12T06:58:55;5.40;;;1.70;;
56503;SDS011;48812;51.606;-0.114;2023-04-12T07:01:30;3.03;;;1.27;;
56503;SDS011;48812;51.606;-0.114;2023-04-12T07:04:06;6.07;;;1.60;;
56503;SDS011;48812;51.606;-0.114;2023-04-12T07:06:41;5.82;;;1.45;;
56503;SDS011;48812;51.606;-0.114;2023-04-12T07:09:14;3.67;;;1.40;;
56503;SDS011;48812;51.606;-0.114;2023-04-12T07:11:47;4.85;;;1.50;;
56503;SDS011;48812;51.606;-0.114;2023-04-12T07:14:19;5.00;;;1.77;;
56503;SDS011;48812;51.606;-0.114;2023-04-12T07:16:52;3.72;;;1.77;;
56503;SDS011;48812;51.606;-0.114;2023-04-12T07:19:31;4.95;;;1.50;;
56503;SDS011;48812;51.606;-0.114;2023-04-12T07:26:30;4.68;;;1.75;;
56503;SDS011;48812;51.606;-0.114;2023-04-12T07:30:38;5.43;;;1.50;;
56503;SDS011;48812;51.606;-0.114;2023-04-12T07:34:24;5.10;;;1.38;;
56503;SDS011;48812;51.606;-0.114;2023-04-12T07:37:52;5.25;;;1.60;;
56503;SDS011;48812;51.606;-0.114;2023-04-12T07:40:23;4.70;;;1.23;;
56503;SDS011;48812;51.606;-0.114;2023-04-12T07:42:56;5.07;;;1.38;;
56503;SDS011;48812;51.606;-0.114;2023-04-12T07:45:28;3.87;;;1.50;;
56503;SDS011;48812;51.606;-0.114;2023-04-12T07:48:01;4.10;;;1.50;;
56503;SDS011;48812;51.606;-0.114;2023-04-12T07:50:34;5.88;;;1.40;;
56503;SDS011;48812;51.606;-0.114;2023-04-12T07:56:07;5.05;;;1.70;;
56503;SDS011;48812;51.606;-0.114;2023-04-12T07:58:40;5.60;;;1.63;;
56503;SDS011;48812;51.606;-0.114;2023-04-12T08:01:13;4.95;;;1.45;;
56503;SDS011;48812;51.606;-0.114;2023-04-12T08:03:46;4.25;;;1.58;;
56503;SDS011;48812;51.606;-0.114;2023-04-12T08:06:20;4.20;;;1.27;;
56503;SDS011;48812;51.606;-0.114;2023-04-12T08:08:52;3.28;;;1.42;;
56503;SDS011;48812;51.606;-0.114;2023-04-12T08:11:26;4.37;;;1.20;;
56503;SDS011;48812;51.606;-0.114;2023-04-12T08:13:59;5.85;;;1.50;;
56503;SDS011;48812;51.606;-0.114;2023-04-12T08:16:31;3.17;;;1.48;;
56503;SDS011;48812;51.606;-0.114;2023-04-12T08:19:04;3.97;;;1.30;;
56503;SDS011;48812;51.606;-0.114;2023-04-12T08:21:38;6.63;;;1.83;;
56503;SDS011;48812;51.606;-0.114;2023-04-12T08:24:10;4.65;;;1.48;;
56503;SDS011;48812;51.606;-0.114;2023-04-12T08:26:45;4.90;;;1.45;;
56503;SDS011;48812;51.606;-0.114;2023-04-12T08:29:20;5.00;;;1.52;;
56503;SDS011;48812;51.606;-0.114;2023-04-12T08:31:53;5.97;;;1.50;;
56503;SDS011;48812;51.606;-0.114;2023-04-12T08:34:27;3.45;;;1.10;;
56503;SDS011;48812;51.606;-0.114;2023-04-12T08:36:59;3.77;;;1.30;;
56503;SDS011;48812;51.606;-0.114;2023-04-12T08:39:34;2.15;;;1.05;;
56503;SDS011;48812;51.606;-0.114;2023-04-12T08:42:09;6.85;;;1.50;;
56503;SDS011;48812;51.606;-0.114;2023-04-12T08:44:42;3.83;;;1.27;;
56503;SDS011;48812;51.606;-0.114;2023-04-12T08:47:15;3.67;;;1.20;;
56503;SDS011;48812;51.606;-0.114;2023-04-12T08:49:48;3.72;;;1.30;;
56503;SDS011;48812;51.606;-0.114;2023-04-12T08:52:25;5.70;;;1.50;;
56503;SDS011;48812;51.606;-0.114;2023-04-12T08:54:58;2.75;;;1.10;;
56503;SDS011;48812;51.606;-0.114;2023-04-12T08:57:34;6.55;;;1.60;;
56503;SDS011;48812;51.606;-0.114;2023-04-12T09:00:08;4.13;;;1.23;;
56503;SDS011;48812;51.606;-0.114;2023-04-12T09:02:43;5.18;;;1.30;;
56503;SDS011;48812;51.606;-0.114;2023-04-12T09:05:18;5.05;;;1.30;;
56503;SDS011;48812;51.606;-0.114;2023-04-12T09:07:51;10.05;;;1.40;;
56503;SDS011;48812;51.606;-0.114;2023-04-12T09:10:28;2.58;;;1.00;;
56503;SDS011;48812;51.606;-0.114;2023-04-12T09:13:05;5.40;;;1.48;;
56503;SDS011;48812;51.606;-0.114;2023-04-12T09:15:46;4.93;;;1.20;;
56503;SDS011;48812;51.606;-0.114;2023-04-12T09:18:20;5.05;;;1.25;;
56503;SDS011;48812;51.606;-0.114;2023-04-12T09:21:06;4.80;;;1.25;;
56503;SDS011;48812;51.606;-0.114;2023-04-12T09:23:40;7.00;;;1.25;;
56503;SDS011;48812;51.606;-0.114;2023-04-12T09:26:25;4.50;;;1.20;;
56503;SDS011;48812;51.606;-0.114;2023-04-12T09:29:02;6.80;;;1.08;;
56503;SDS011;48812;51.606;-0.114;2023-04-12T09:31:37;3.13;;;1.10;;
56503;SDS011;48812;51.606;-0.114;2023-04-12T09:34:10;3.93;;;1.30;;
56503;SDS011;48812;51.606;-0.114;2023-04-12T09:36:42;4.45;;;1.33;;
56503;SDS011;48812;51.606;-0.114;2023-04-12T09:39:18;4.07;;;1.58;;
56503;SDS011;48812;51.606;-0.114;2023-04-12T09:42:02;5.50;;;1.25;;
56503;SDS011;48812;51.606;-0.114;2023-04-12T09:45:18;3.85;;;1.50;;
56503;SDS011;48812;51.606;-0.114;2023-04-12T09:47:53;5.25;;;1.30;;
56503;SDS011;48812;51.606;-0.114;2023-04-12T09:50:29;7.93;;;1.50;;
56503;SDS011;48812;51.606;-0.114;2023-04-12T09:53:11;7.50;;;1.40;;
56503;SDS011;48812;51.606;-0.114;2023-04-12T09:55:48;7.63;;;1.30;;
56503;SDS011;48812;51.606;-0.114;2023-04-12T09:58:22;8.10;;;1.20;;
56503;SDS011;48812;51.606;-0.114;2023-04-12T10:00:56;13.00;;;1.35;;
56503;SDS011;48812;51.606;-0.114;2023-04-12T10:03:34;4.65;;;1.23;;
56503;SDS011;48812;51.606;-0.114;2023-04-12T10:06:07;10.02;;;2.45;;
56503;SDS011;48812;51.606;-0.114;2023-04-12T10:08:40;8.52;;;1.63;;
56503;SDS011;48812;51.606;-0.114;2023-04-12T10:11:13;3.65;;;0.95;;
56503;SDS011;48812;51.606;-0.114;2023-04-12T10:13:45;5.80;;;1.40;;
56503;SDS011;48812;51.606;-0.114;2023-04-12T10:16:20;11.50;;;1.90;;
56503;SDS011;48812;51.606;-0.114;2023-04-12T10:18:54;7.43;;;1.17;;
56503;SDS011;48812;51.606;-0.114;2023-04-12T10:21:27;4.60;;;1.40;;
56503;SDS011;48812;51.606;-0.114;2023-04-12T10:25:12;5.90;;;1.23;;
56503;SDS011;48812;51.606;-0.114;2023-04-12T10:28:26;11.40;;;1.60;;
56503;SDS011;48812;51.606;-0.114;2023-04-12T10:31:52;5.03;;;1.35;;
56503;SDS011;48812;51.606;-0.114;2023-04-12T10:34:30;8.10;;;1.52;;
56503;SDS011;48812;51.606;-0.114;2023-04-12T10:37:03;6.18;;;1.30;;
56503;SDS011;48812;51.606;-0.114;2023-04-12T10:39:39;10.98;;;1.30;;
56503;SDS011;48812;51.606;-0.114;2023-04-12T10:42:17;11.80;;;1.63;;
56503;SDS011;48812;51.606;-0.114;2023-04-12T10:57:46;4.07;;;1.08;;
56503;SDS011;48812;51.606;-0.114;2023-04-12T11:05:09;3.42;;;1.00;;
56503;SDS011;48812;51.606;-0.114;2023-04-12T11:08:55;6.57;;;1.10;;
56503;SDS011;48812;51.606;-0.114;2023-04-12T11:12:16;8.43;;;1.13;;
56503;SDS011;48812;51.606;-0.114;2023-04-12T11:14:58;3.67;;;0.82;;
56503;SDS011;48812;51.606;-0.114;2023-04-12T11:17:56;9.38;;;1.30;;
56503;SDS011;48812;51.606;-0.114;2023-04-12T11:21:23;3.63;;;0.80;;
56503;SDS011;48812;51.606;-0.114;2023-04-12T11:25:28;5.82;;;1.10;;
56503;SDS011;48812;51.606;-0.114;2023-04-12T11:29:00;2.22;;;0.88;;
56503;SDS011;48812;51.606;-0.114;2023-04-12T11:36:43;7.15;;;1.13;;
56503;SDS011;48812;51.606;-0.114;2023-04-12T11:45:33;4.60;;;1.00;;
56503;SDS011;48812;51.606;-0.114;2023-04-12T12:01:26;4.95;;;1.40;;
56503;SDS011;48812;51.606;-0.114;2023-04-12T12:34:01;11.05;;;3.83;;
56503;SDS011;48812;51.606;-0.114;2023-04-12T12:37:49;12.75;;;3.20;;
56503;SDS011;48812;51.606;-0.114;2023-04-12T12:46:22;13.82;;;3.58;;
56503;SDS011;48812;51.606;-0.114;2023-04-12T12:49:56;9.90;;;3.78;;
56503;SDS011;48812;51.606;-0.114;2023-04-12T12:52:45;9.55;;;2.85;;
56503;SDS011;48812;51.606;-0.114;2023-04-12T12:59:47;8.75;;;2.40;;
56503;SDS011;48812;51.606;-0.114;2023-04-12T14:25:11;6.88;;;2.25;;
56503;SDS011;48812;51.606;-0.114;2023-04-12T14:41:47;8.00;;;2.30;;
56503;SDS011;48812;51.606;-0.114;2023-04-12T14:49:36;4.47;;;1.90;;
56503;SDS011;48812;51.606;-0.114;2023-04-12T15:08:45;6.25;;;1.70;;
56503;SDS011;48812;51.606;-0.114;2023-04-12T15:17:12;4.00;;;1.33;;
56503;SDS011;48812;51.606;-0.114;2023-04-12T15:21:27;5.33;;;1.30;;
56503;SDS011;48812;51.606;-0.114;2023-04-12T15:25:19;2.88;;;1.08;;
56503;SDS011;48812;51.606;-0.114;2023-04-12T15:51:04;4.15;;;1.40;;
56503;SDS011;48812;51.606;-0.114;2023-04-12T15:55:03;3.58;;;1.05;;
56503;SDS011;48812;51.606;-0.114;2023-04-12T15:59:08;3.60;;;1.20;;
56503;SDS011;48812;51.606;-0.114;2023-04-12T16:10:57;3.47;;;0.90;;
56503;SDS011;48812;51.606;-0.114;2023-04-12T16:33:24;2.83;;;1.00;;
56503;SDS011;48812;51.606;-0.114;2023-04-12T16:45:28;2.17;;;0.80;;
56503;SDS011;48812;51.606;-0.114;2023-04-12T16:49:45;1.95;;;0.85;;
56503;SDS011;48812;51.606;-0.114;2023-04-12T16:53:17;2.35;;;0.80;;
56503;SDS011;48812;51.606;-0.114;2023-04-12T16:56:43;1.40;;;0.90;;
56503;SDS011;48812;51.606;-0.114;2023-04-12T17:17:10;2.53;;;0.80;;
56503;SDS011;48812;51.606;-0.114;2023-04-12T17:21:16;1.95;;;0.65;;
56503;SDS011;48812;51.606;-0.114;2023-04-12T17:33:28;1.75;;;0.60;;
56503;SDS011;48812;51.606;-0.114;2023-04-12T18:21:05;1.52;;;0.60;;
56503;SDS011;48812;51.606;-0.114;2023-04-12T18:32:36;2.35;;;0.65;;
56503;SDS011;48812;51.606;-0.114;2023-04-12T18:35:07;2.20;;;0.80;;
56503;SDS011;48812;51.606;-0.114;2023-04-12T18:37:43;0.88;;;0.57;;
56503;SDS011;48812;51.606;-0.114;2023-04-12T18:40:16;2.20;;;0.70;;
56503;SDS011;48812;51.606;-0.114;2023-04-12T18:47:18;1.95;;;0.80;;
56503;SDS011;48812;51.606;-0.114;2023-04-12T19:07:56;1.30;;;0.50;;
56503;SDS011;48812;51.606;-0.114;2023-04-12T19:10:45;1.70;;;0.63;;
56503;SDS011;48812;51.606;-0.114;2023-04-12T19:13:30;1.50;;;0.60;;
56503;SDS011;48812;51.606;-0.114;2023-04-12T19:21:46;2.58;;;1.00;;
56503;SDS011;48812;51.606;-0.114;2023-04-12T19:25:30;2.22;;;0.50;;
56503;SDS011;48812;51.606;-0.114;2023-04-12T19:28:18;2.17;;;0.63;;
56503;SDS011;48812;51.606;-0.114;2023-04-12T19:30:51;2.22;;;0.82;;
56503;SDS011;48812;51.606;-0.114;2023-04-12T19:34:45;1.67;;;0.70;;
56503;SDS011;48812;51.606;-0.114;2023-04-12T19:47:04;2.40;;;0.63;;
56503;SDS011;48812;51.606;-0.114;2023-04-12T19:50:55;2.70;;;0.90;;
56503;SDS011;48812;51.606;-0.114;2023-04-12T19:53:28;2.40;;;0.90;;
56503;SDS011;48812;51.606;-0.114;2023-04-12T19:56:01;2.30;;;0.80;;
56503;SDS011;48812;51.606;-0.114;2023-04-12T19:58:40;1.33;;;0.60;;
56503;SDS011;48812;51.606;-0.114;2023-04-12T20:01:16;1.63;;;0.73;;
56503;SDS011;48812;51.606;-0.114;2023-04-12T20:03:48;2.33;;;0.80;;
56503;SDS011;48812;51.606;-0.114;2023-04-12T20:06:22;1.45;;;0.70;;
56503;SDS011;48812;51.606;-0.114;2023-04-12T20:11:30;1.58;;;0.60;;
56503;SDS011;48812;51.606;-0.114;2023-04-12T20:14:05;2.70;;;0.70;;
56503;SDS011;48812;51.606;-0.114;2023-04-12T20:16:40;1.75;;;0.80;;
56503;SDS011;48812;51.606;-0.114;2023-04-12T20:19:16;1.88;;;0.80;;
56503;SDS011;48812;51.606;-0.114;2023-04-12T20:21:48;0.70;;;0.60;;
56503;SDS011;48812;51.606;-0.114;2023-04-12T20:29:05;1.55;;;0.70;;
56503;SDS011;48812;51.606;-0.114;2023-04-12T20:37:16;2.03;;;0.73;;
56503;SDS011;48812;51.606;-0.114;2023-04-12T20:39:49;1.88;;;0.80;;
56503;SDS011;48812;51.606;-0.114;2023-04-12T20:42:25;1.67;;;0.73;;
56503;SDS011;48812;51.606;-0.114;2023-04-12T20:44:59;1.52;;;0.80;;
56503;SDS011;48812;51.606;-0.114;2023-04-12T20:47:32;2.22;;;0.90;;
56503;SDS011;48812;51.606;-0.114;2023-04-12T20:50:07;1.65;;;0.80;;
56503;SDS011;48812;51.606;-0.114;2023-04-12T21:10:08;1.33;;;0.60;;
56503;SDS011;48812;51.606;-0.114;2023-04-12T21:51:09;1.52;;;0.70;;
56503;SDS011;48812;51.606;-0.114;2023-04-12T21:55:15;1.15;;;0.65;;
56503;SDS011;48812;51.606;-0.114;2023-04-12T21:58:27;0.80;;;0.70;;
56503;SDS011;48812;51.606;-0.114;2023-04-12T22:01:18;2.20;;;0.90;;
56503;SDS011;48812;51.606;-0.114;2023-04-12T22:03:51;2.03;;;0.80;;
56503;SDS011;48812;51.606;-0.114;2023-04-12T22:06:40;1.63;;;0.70;;
56503;SDS011;48812;51.606;-0.114;2023-04-12T22:09:19;1.02;;;0.60;;
56503;SDS011;48812;51.606;-0.114;2023-04-12T22:11:51;1.60;;;0.70;;
56503;SDS011;48812;51.606;-0.114;2023-04-12T22:19:40;1.10;;;0.68;;
56503;SDS011;48812;51.606;-0.114;2023-04-12T22:22:13;2.55;;;0.93;;
56503;SDS011;48812;51.606;-0.114;2023-04-12T22:24:52;1.80;;;0.77;;
56503;SDS011;48812;51.606;-0.114;2023-04-12T22:27:25;1.75;;;0.70;;
56503;SDS011;48812;51.606;-0.114;2023-04-12T22:30:01;2.10;;;0.80;;
56503;SDS011;48812;51.606;-0.114;2023-04-12T22:32:36;0.77;;;0.63;;
56503;SDS011;48812;51.606;-0.114;2023-04-12T22:40:48;1.27;;;0.70;;
56503;SDS011;48812;51.606;-0.114;2023-04-12T22:44:54;1.40;;;0.77;;
56503;SDS011;48812;51.606;-0.114;2023-04-12T22:57:23;1.48;;;0.70;;
56503;SDS011;48812;51.606;-0.114;2023-04-12T23:00:51;0.88;;;0.60;;
56503;SDS011;48812;51.606;-0.114;2023-04-12T23:03:29;0.47;;;0.45;;
56503;SDS011;48812;51.606;-0.114;2023-04-12T23:06:08;0.90;;;0.68;;
56503;SDS011;48812;51.606;-0.114;2023-04-12T23:08:43;1.02;;;0.55;;
56503;SDS011;48812;51.606;-0.114;2023-04-12T23:11:21;1.35;;;0.60;;
56503;SDS011;48812;51.606;-0.114;2023-04-12T23:13:53;0.67;;;0.60;;
56503;SDS011;48812;51.606;-0.114;2023-04-12T23:16:31;1.20;;;0.68;;
56503;SDS011;48812;51.606;-0.114;2023-04-12T23:19:07;1.15;;;0.60;;
56503;SDS011;48812;51.606;-0.114;2023-04-12T23:21:40;0.90;;;0.70;;
56503;SDS011;48812;51.606;-0.114;2023-04-12T23:24:16;0.93;;;0.52;;
56503;SDS011;48812;51.606;-0.114;2023-04-12T23:29:29;0.63;;;0.43;;
56503;SDS011;48812;51.606;-0.114;2023-04-12T23:32:05;0.70;;;0.60;;
56503;SDS011;48812;51.606;-0.114;2023-04-12T23:34:38;0.60;;;0.60;;
56503;SDS011;48812;51.606;-0.114;2023-04-12T23:37:12;0.93;;;0.50;;
56503;SDS011;48812;51.606;-0.114;2023-04-12T23:39:45;1.02;;;0.55;;
56503;SDS011;48812;51.606;-0.114;2023-04-12T23:42:18;1.42;;;0.50;;
56503;SDS011;48812;51.606;-0.114;2023-04-12T23:44:54;1.63;;;0.68;;
56503;SDS011;48812;51.606;-0.114;2023-04-12T23:48:30;1.58;;;0.65;;
56503;SDS011;48812;51.606;-0.114;2023-04-12T23:52:44;1.65;;;0.50;;
